createdAt,value
2022-09-27T00:01:14.457Z,14.57
2022-09-27T00:03:42.206Z,14.62
2022-09-27T00:06:16.697Z,14.60
2022-09-27T00:08:43.811Z,14.59
2022-09-27T00:11:17.868Z,14.57
2022-09-27T00:13:45.515Z,14.59
2022-09-27T00:16:12.499Z,14.49
2022-09-27T00:18:39.345Z,14.66
2022-09-27T00:21:11.668Z,14.70
2022-09-27T00:23:39.106Z,14.68
2022-09-27T00:26:07.527Z,14.66
2022-09-27T00:28:34.788Z,14.76
2022-09-27T00:31:03.837Z,14.70
2022-09-27T00:33:30.767Z,14.74
2022-09-27T00:36:07.277Z,14.71
2022-09-27T00:38:34.188Z,14.72
2022-09-27T00:41:01.101Z,14.70
2022-09-27T00:43:44.910Z,14.75
2022-09-27T00:46:15.832Z,14.69
2022-09-27T00:49:14.144Z,14.76
2022-09-27T00:51:43.514Z,14.71
2022-09-27T00:54:15.040Z,14.76
2022-09-27T00:56:43.892Z,14.71
2022-09-27T00:59:23.038Z,14.78
2022-09-27T01:01:51.096Z,14.82
2022-09-27T01:04:25.394Z,14.81
2022-09-27T01:06:53.046Z,14.88
2022-09-27T01:09:21.583Z,14.81
2022-09-27T01:12:07.046Z,14.96
2022-09-27T01:15:16.839Z,14.79
2022-09-27T01:17:59.204Z,14.93
2022-09-27T01:20:41.615Z,14.88
2022-09-27T01:23:29.289Z,14.80
2022-09-27T01:26:15.588Z,14.78
2022-09-27T01:29:03.676Z,14.82
2022-09-27T01:31:49.094Z,14.79
2022-09-27T01:34:27.522Z,14.80
2022-09-27T01:37:18.653Z,14.72
2022-09-27T01:39:54.924Z,14.82
2022-09-27T01:42:55.509Z,14.78
2022-09-27T01:45:30.848Z,14.86
2022-09-27T01:48:14.931Z,14.83
2022-09-27T01:50:57.401Z,14.85
2022-09-27T01:53:32.408Z,14.73
2022-09-27T01:56:41.654Z,14.84
2022-09-27T01:59:38.234Z,14.79
2022-09-27T02:02:27.071Z,14.74
2022-09-27T02:05:17.953Z,14.74
2022-09-27T02:07:58.188Z,14.74
2022-09-27T02:10:30.838Z,14.71
2022-09-27T02:13:08.331Z,14.76
2022-09-27T02:15:54.782Z,14.61
2022-09-27T02:18:53.840Z,14.57
2022-09-27T02:21:23.285Z,14.44
2022-09-27T02:23:58.261Z,14.47
2022-09-27T02:26:36.228Z,14.46
2022-09-27T02:29:11.440Z,14.37
2022-09-27T02:31:47.499Z,14.32
2022-09-27T02:34:21.444Z,14.34
2022-09-27T02:36:48.610Z,14.36
2022-09-27T02:39:17.973Z,14.37
2022-09-27T02:41:45.307Z,14.40
2022-09-27T02:44:15.060Z,14.37
2022-09-27T02:47:19.128Z,14.43
2022-09-27T02:50:00.658Z,14.37
2022-09-27T02:53:26.086Z,14.23
2022-09-27T02:56:25.339Z,14.34
2022-09-27T02:59:31.215Z,14.41
2022-09-27T03:02:49.339Z,14.43
2022-09-27T03:05:49.094Z,14.43
2022-09-27T03:08:17.077Z,14.43
2022-09-27T03:10:43.927Z,14.45
2022-09-27T03:13:11.216Z,14.48
2022-09-27T03:15:38.188Z,14.48
2022-09-27T03:18:05.235Z,14.52
2022-09-27T03:20:40.605Z,14.36
2022-09-27T03:23:09.865Z,14.45
2022-09-27T03:25:36.864Z,14.38
2022-09-27T03:28:03.875Z,14.43
2022-09-27T03:30:31.711Z,14.57
2022-09-27T03:32:58.494Z,14.45
2022-09-27T03:35:42.935Z,14.60
2022-09-27T03:38:11.126Z,14.51
2022-09-27T03:40:38.919Z,14.33
2022-09-27T03:43:07.164Z,14.31
2022-09-27T03:45:34.281Z,14.29
2022-09-27T03:48:05.529Z,14.15
2022-09-27T03:50:32.545Z,14.30
2022-09-27T03:52:59.457Z,14.26
2022-09-27T03:55:26.445Z,14.21
2022-09-27T03:57:53.559Z,14.05
2022-09-27T04:00:21.325Z,14.15
2022-09-27T04:02:48.990Z,14.14
2022-09-27T04:05:21.768Z,14.03
2022-09-27T04:07:49.553Z,14.12
2022-09-27T04:10:18.262Z,14.00
2022-09-27T04:12:45.641Z,14.25
2022-09-27T04:15:12.998Z,14.26
2022-09-27T04:17:49.536Z,14.20
2022-09-27T04:20:36.385Z,14.21
2022-09-27T04:23:14.190Z,14.25
2022-09-27T04:25:48.571Z,14.21
2022-09-27T04:28:21.234Z,14.21
2022-09-27T04:30:49.168Z,14.20
2022-09-27T04:33:50.378Z,14.19
2022-09-27T04:36:28.211Z,14.29
2022-09-27T04:39:09.231Z,14.30
2022-09-27T04:41:42.438Z,14.35
2022-09-27T04:44:09.688Z,14.35
2022-09-27T04:46:36.770Z,14.41
2022-09-27T04:49:04.284Z,14.43
2022-09-27T04:51:34.301Z,14.45
2022-09-27T04:54:04.874Z,14.52
2022-09-27T04:56:41.468Z,14.48
2022-09-27T04:59:10.978Z,14.42
2022-09-27T05:01:40.712Z,14.58
2022-09-27T05:04:07.782Z,14.54
2022-09-27T05:06:38.541Z,14.64
2022-09-27T05:09:09.817Z,14.67
2022-09-27T05:12:05.394Z,14.68
2022-09-27T05:14:32.211Z,14.58
2022-09-27T05:17:10.249Z,14.75
2022-09-27T05:19:56.233Z,14.77
2022-09-27T05:22:39.552Z,14.62
2022-09-27T05:25:07.839Z,14.78
2022-09-27T05:27:37.643Z,14.78
2022-09-27T05:30:08.061Z,14.71
2022-09-27T05:32:50.228Z,14.75
2022-09-27T05:35:47.651Z,14.84
2022-09-27T05:38:14.833Z,14.84
2022-09-27T05:40:47.970Z,14.92
2022-09-27T05:43:18.292Z,14.93
2022-09-27T05:45:45.426Z,15.00
2022-09-27T05:48:15.829Z,14.94
2022-09-27T05:50:56.532Z,14.98
2022-09-27T05:53:23.411Z,14.82
2022-09-27T05:55:50.667Z,14.94
2022-09-27T05:58:21.145Z,14.94
2022-09-27T06:01:07.914Z,14.98
2022-09-27T06:03:57.931Z,14.97
2022-09-27T06:06:43.312Z,15.00
2022-09-27T06:09:15.406Z,15.04
2022-09-27T06:11:45.563Z,15.00
2022-09-27T06:14:15.293Z,14.97
2022-09-27T06:16:55.242Z,14.95
2022-09-27T06:19:25.507Z,14.83
2022-09-27T06:21:52.520Z,14.94
2022-09-27T06:24:19.501Z,15.05
2022-09-27T06:26:46.704Z,15.03
2022-09-27T06:29:39.954Z,15.01
2022-09-27T06:32:15.099Z,15.19
2022-09-27T06:34:55.386Z,15.25
2022-09-27T06:37:27.194Z,15.34
2022-09-27T06:39:54.478Z,15.40
2022-09-27T06:42:40.536Z,15.42
2022-09-27T06:45:14.346Z,15.54
2022-09-27T06:48:13.060Z,15.58
2022-09-27T06:50:49.333Z,15.59
2022-09-27T06:53:17.024Z,15.59
2022-09-27T06:55:44.247Z,15.61
2022-09-27T06:58:30.618Z,15.63
2022-09-27T07:01:16.678Z,15.61
2022-09-27T07:12:47.771Z,15.35
2022-09-27T07:15:16.347Z,15.37
2022-09-27T07:17:43.670Z,15.41
2022-09-27T07:20:11.851Z,15.37
2022-09-27T07:22:41.654Z,15.42
2022-09-27T07:25:09.761Z,15.49
2022-09-27T07:27:39.036Z,15.53
2022-09-27T07:30:09.991Z,15.63
2022-09-27T07:32:37.952Z,15.73
2022-09-27T07:35:08.737Z,15.79
2022-09-27T07:37:37.874Z,15.90
2022-09-27T07:40:08.707Z,16.03
2022-09-27T07:42:41.826Z,16.04
2022-09-27T07:45:09.829Z,16.18
2022-09-27T07:47:55.206Z,16.03
2022-09-27T07:50:48.375Z,16.18
2022-09-27T07:53:37.794Z,16.31
2022-09-27T07:56:23.402Z,16.47
2022-09-27T07:58:50.340Z,16.42
2022-09-27T08:01:17.330Z,16.43
2022-09-27T08:03:44.805Z,16.45
2022-09-27T08:06:13.028Z,16.45
2022-09-27T08:08:39.940Z,16.28
2022-09-27T08:11:16.147Z,16.38
2022-09-27T08:13:45.843Z,16.42
2022-09-27T08:16:14.478Z,16.39
2022-09-27T08:19:01.393Z,16.30
2022-09-27T08:21:58.834Z,16.21
2022-09-27T08:24:35.452Z,16.20
2022-09-27T08:27:22.053Z,16.22
2022-09-27T08:29:52.738Z,16.31
2022-09-27T08:32:23.330Z,16.35
2022-09-27T08:34:51.275Z,16.48
2022-09-27T08:37:20.741Z,16.61
2022-09-27T08:39:48.714Z,16.78
2022-09-27T08:42:32.962Z,16.75
2022-09-27T08:45:18.704Z,16.77
2022-09-27T08:47:53.323Z,16.94
2022-09-27T08:50:31.274Z,17.14
2022-09-27T08:53:17.934Z,17.30
2022-09-27T08:55:53.769Z,17.52
2022-09-27T08:58:37.492Z,17.69
2022-09-27T09:01:17.244Z,17.69
2022-09-27T09:04:03.950Z,17.75
2022-09-27T09:06:44.297Z,17.73
2022-09-27T09:09:36.440Z,17.69
2022-09-27T09:12:37.362Z,17.88
2022-09-27T09:15:27.253Z,17.94
2022-09-27T09:18:18.665Z,18.08
2022-09-27T09:21:18.122Z,18.30
2022-09-27T09:23:47.970Z,18.42
2022-09-27T09:26:26.760Z,18.49
2022-09-27T09:29:07.814Z,18.64
2022-09-27T09:31:44.099Z,18.90
2022-09-27T09:34:24.491Z,19.08
2022-09-27T09:37:05.960Z,19.24
2022-09-27T09:39:40.438Z,19.43
2022-09-27T09:42:35.937Z,19.70
2022-09-27T09:45:04.466Z,19.66
2022-09-27T09:47:37.700Z,19.70
2022-09-27T09:50:17.095Z,19.71
2022-09-27T09:52:50.128Z,19.58
2022-09-27T09:55:28.641Z,19.59
2022-09-27T09:58:20.125Z,19.53
2022-09-27T10:00:54.057Z,19.64
2022-09-27T10:03:21.228Z,19.63
2022-09-27T10:05:51.842Z,19.69
2022-09-27T10:08:22.264Z,19.75
2022-09-27T10:10:57.731Z,19.86
2022-09-27T10:13:45.972Z,19.73
2022-09-27T10:16:16.537Z,20.22
2022-09-27T10:18:49.685Z,20.40
2022-09-27T10:21:23.241Z,20.45
2022-09-27T10:24:16.502Z,20.56
2022-09-27T10:30:25.624Z,20.57
2022-09-27T10:32:57.122Z,20.55
2022-09-27T10:35:46.244Z,20.74
2022-09-27T10:38:32.026Z,21.29
2022-09-27T10:41:32.092Z,21.65
2022-09-27T10:44:34.947Z,21.83
2022-09-27T10:47:36.881Z,21.95
2022-09-27T10:50:48.939Z,22.00
2022-09-27T10:53:23.773Z,22.04
2022-09-27T10:56:02.434Z,22.29
2022-09-27T10:58:36.891Z,22.47
2022-09-27T11:01:12.327Z,22.79
2022-09-27T11:04:04.976Z,23.03
2022-09-27T11:06:38.010Z,23.28
2022-09-27T11:09:24.585Z,23.67
2022-09-27T11:12:13.614Z,24.33
2022-09-27T11:14:42.814Z,24.50
2022-09-27T11:17:30.328Z,25.12
2022-09-27T11:21:03.749Z,25.34
2022-09-27T11:24:01.202Z,25.93
2022-09-27T11:26:54.163Z,25.90
2022-09-27T11:29:48.151Z,25.57
2022-09-27T11:33:10.237Z,25.98
2022-09-27T11:36:15.968Z,26.31
2022-09-27T11:38:53.222Z,26.54
2022-09-27T11:41:33.305Z,26.82
2022-09-27T11:44:29.002Z,27.22
2022-09-27T11:47:23.965Z,27.39
2022-09-27T11:49:57.217Z,27.98
2022-09-27T11:52:34.383Z,28.38
2022-09-27T11:55:19.469Z,28.86
2022-09-27T11:58:13.993Z,29.23
2022-09-27T12:01:00.520Z,29.18
2022-09-27T12:04:11.382Z,28.58
2022-09-27T12:07:07.389Z,28.45
2022-09-27T12:09:44.607Z,28.87
2022-09-27T12:12:17.875Z,29.21
2022-09-27T12:14:49.308Z,29.60
2022-09-27T12:17:24.038Z,29.36
2022-09-27T12:19:55.337Z,29.08
2022-09-27T12:22:59.225Z,29.11
2022-09-27T12:25:57.530Z,29.26
2022-09-27T12:28:41.077Z,29.44
2022-09-27T12:31:29.076Z,29.42
2022-09-27T12:34:04.795Z,29.70
2022-09-27T12:36:43.930Z,30.44
2022-09-27T12:39:30.601Z,31.28
2022-09-27T12:45:51.308Z,32.58
2022-09-27T12:48:24.151Z,33.04
2022-09-27T12:51:03.361Z,33.70
2022-09-27T12:54:05.294Z,34.19
2022-09-27T12:56:58.116Z,34.66
2022-09-27T12:59:37.128Z,34.98
2022-09-27T13:02:31.993Z,35.28
2022-09-27T13:05:08.130Z,35.56
2022-09-27T13:08:09.381Z,36.18
2022-09-27T13:11:03.425Z,35.87
2022-09-27T13:13:36.836Z,34.62
2022-09-27T13:16:07.914Z,33.42
2022-09-27T13:18:53.770Z,32.92
2022-09-27T13:21:49.113Z,32.08
2022-09-27T13:24:40.678Z,31.34
2022-09-27T13:27:25.893Z,31.05
2022-09-27T13:30:19.193Z,30.53
2022-09-27T13:33:09.085Z,29.61
2022-09-27T13:36:24.587Z,29.29
2022-09-27T13:39:01.206Z,29.81
2022-09-27T13:41:41.626Z,30.63
2022-09-27T13:44:23.957Z,31.58
2022-09-27T13:47:15.853Z,31.96
2022-09-27T13:49:50.002Z,32.82
2022-09-27T13:52:36.136Z,32.99
2022-09-27T13:55:35.109Z,31.47
2022-09-27T13:58:14.082Z,29.61
2022-09-27T14:00:45.638Z,28.05
2022-09-27T14:03:12.425Z,27.34
2022-09-27T14:06:04.374Z,26.60
2022-09-27T14:08:38.812Z,26.03
2022-09-27T14:11:13.175Z,25.61
2022-09-27T14:13:43.022Z,25.26
2022-09-27T14:16:15.494Z,25.04
2022-09-27T14:18:59.039Z,24.40
2022-09-27T14:21:39.873Z,23.94
2022-09-27T14:24:45.594Z,23.54
2022-09-27T14:27:24.406Z,22.93
2022-09-27T14:30:16.130Z,22.56
2022-09-27T14:33:01.667Z,22.27
2022-09-27T14:36:08.078Z,22.11
2022-09-27T14:38:38.400Z,21.96
2022-09-27T14:41:17.323Z,21.80
2022-09-27T14:43:46.570Z,21.69
2022-09-27T14:46:33.706Z,21.58
2022-09-27T14:49:23.090Z,21.48
2022-09-27T14:51:54.870Z,21.43
2022-09-27T14:54:30.493Z,21.38
2022-09-27T14:57:00.049Z,21.25
2022-09-27T14:59:35.591Z,21.15
2022-09-27T15:02:17.689Z,21.04
2022-09-27T15:04:47.405Z,20.93
2022-09-27T15:07:17.864Z,20.89
2022-09-27T15:09:46.151Z,20.79
2022-09-27T15:12:19.085Z,20.75
2022-09-27T15:14:50.555Z,20.72
2022-09-27T15:17:21.661Z,20.76
2022-09-27T15:20:25.539Z,20.83
2022-09-27T15:22:53.474Z,20.83
2022-09-27T15:25:34.619Z,20.84
2022-09-27T15:28:21.581Z,20.70
2022-09-27T15:30:57.830Z,20.35
2022-09-27T15:33:31.983Z,19.00
2022-09-27T15:36:03.634Z,13.60
2022-09-27T15:38:33.860Z,11.64
2022-09-27T15:41:07.169Z,11.27
2022-09-27T15:43:47.134Z,11.23
2022-09-27T15:46:36.099Z,12.00
2022-09-27T15:49:18.557Z,11.69
2022-09-27T15:51:52.027Z,12.33
2022-09-27T15:54:20.746Z,12.24
2022-09-27T15:56:55.555Z,12.32
2022-09-27T15:59:27.878Z,12.05
2022-09-27T16:01:57.062Z,12.11
2022-09-27T16:04:24.887Z,12.25
2022-09-27T16:06:53.086Z,12.47
2022-09-27T16:09:21.295Z,12.57
2022-09-27T16:11:49.584Z,12.86
2022-09-27T16:14:18.472Z,13.08
2022-09-27T16:16:54.478Z,12.78
2022-09-27T16:19:21.853Z,12.85
2022-09-27T16:21:49.054Z,12.91
2022-09-27T16:24:17.380Z,12.99
2022-09-27T16:26:45.611Z,13.52
2022-09-27T16:29:15.138Z,13.98
2022-09-27T16:31:42.769Z,13.70
2022-09-27T16:34:10.959Z,16.31
2022-09-27T16:36:39.166Z,16.35
2022-09-27T16:39:15.846Z,13.00
2022-09-27T16:41:43.610Z,12.72
2022-09-27T16:44:13.007Z,12.66
2022-09-27T16:46:46.342Z,12.63
2022-09-27T16:49:32.030Z,12.81
2022-09-27T16:52:02.045Z,12.95
2022-09-27T16:54:30.126Z,13.04
2022-09-27T16:56:58.898Z,13.01
2022-09-27T16:59:26.110Z,12.78
2022-09-27T17:01:57.537Z,12.75
2022-09-27T17:04:28.798Z,12.73
2022-09-27T17:06:56.390Z,12.75
2022-09-27T17:09:23.448Z,12.84
2022-09-27T17:11:50.838Z,12.99
2022-09-27T17:14:18.152Z,12.97
2022-09-27T17:16:46.603Z,13.07
2022-09-27T17:19:14.852Z,13.25
2022-09-27T17:21:43.489Z,13.29
2022-09-27T17:24:11.257Z,13.29
2022-09-27T17:26:37.976Z,13.33
2022-09-27T17:29:04.927Z,13.46
2022-09-27T17:31:34.693Z,13.57
2022-09-27T17:34:02.856Z,13.70
2022-09-27T17:36:33.997Z,13.79
2022-09-27T17:39:01.388Z,13.82
2022-09-27T17:41:29.091Z,13.91
2022-09-27T17:43:58.463Z,13.88
2022-09-27T17:46:30.838Z,13.86
2022-09-27T17:49:16.955Z,13.94
2022-09-27T17:51:47.395Z,13.98
2022-09-27T17:54:14.469Z,14.08
2022-09-27T17:56:45.602Z,14.01
2022-09-27T17:59:14.898Z,14.09
2022-09-27T18:01:43.333Z,14.10
2022-09-27T18:04:14.718Z,14.04
2022-09-27T18:06:44.043Z,14.01
2022-09-27T18:09:14.348Z,14.14
2022-09-27T18:11:41.968Z,14.09
2022-09-27T18:14:10.503Z,13.90
2022-09-27T18:16:41.389Z,13.74
2022-09-27T18:19:14.348Z,13.70
2022-09-27T18:21:41.221Z,13.64
2022-09-27T18:24:08.403Z,13.54
2022-09-27T18:26:40.246Z,13.62
2022-09-27T18:29:10.305Z,13.68
2022-09-27T18:31:37.563Z,13.60
2022-09-27T18:34:04.316Z,13.70
2022-09-27T18:36:31.656Z,13.69
2022-09-27T18:39:01.118Z,13.62
2022-09-27T18:41:30.642Z,13.57
2022-09-27T18:44:00.977Z,13.52
2022-09-27T18:46:36.334Z,13.67
2022-09-27T18:49:10.479Z,13.66
2022-09-27T18:51:39.986Z,13.45
2022-09-27T18:54:11.553Z,13.46
2022-09-27T18:56:41.731Z,13.40
2022-09-27T18:59:09.571Z,13.24
2022-09-27T19:01:39.917Z,13.40
2022-09-27T19:04:09.593Z,13.40
2022-09-27T19:06:37.354Z,13.46
2022-09-27T19:09:05.799Z,13.38
2022-09-27T19:11:34.204Z,13.23
2022-09-27T19:14:01.107Z,13.22
2022-09-27T19:16:29.589Z,13.27
2022-09-27T19:20:02.315Z,13.27
2022-09-27T19:22:29.549Z,13.30
2022-09-27T19:24:56.400Z,13.16
2022-09-27T19:27:23.352Z,13.18
2022-09-27T19:29:50.401Z,13.25
2022-09-27T19:32:17.196Z,13.35
2022-09-27T19:34:43.941Z,13.33
2022-09-27T19:37:10.694Z,13.45
2022-09-27T19:39:37.407Z,13.39
2022-09-27T19:42:04.271Z,13.24
2022-09-27T19:44:31.984Z,13.41
2022-09-27T19:46:58.858Z,13.47
2022-09-27T19:49:26.034Z,13.46
2022-09-27T19:51:52.685Z,13.17
2022-09-27T19:54:25.185Z,12.88
2022-09-27T19:56:51.801Z,12.54
2022-09-27T19:59:18.541Z,12.21
2022-09-27T20:01:45.634Z,12.13
2022-09-27T20:04:12.965Z,12.22
2022-09-27T20:06:39.713Z,12.34
2022-09-27T20:09:06.382Z,12.62
2022-09-27T20:11:34.101Z,12.85
2022-09-27T20:14:00.936Z,12.78
2022-09-27T20:16:27.673Z,12.80
2022-09-27T20:18:55.420Z,12.81
2022-09-27T20:21:23.465Z,12.80
2022-09-27T20:23:50.965Z,12.91
2022-09-27T20:26:18.832Z,12.95
2022-09-27T20:28:46.595Z,13.02
2022-09-27T20:31:14.231Z,12.96
2022-09-27T20:33:41.143Z,13.00
2022-09-27T20:36:12.603Z,12.93
2022-09-27T20:38:46.664Z,12.51
2022-09-27T20:41:14.643Z,12.39
2022-09-27T20:43:41.285Z,12.54
2022-09-27T20:46:09.766Z,12.74
2022-09-27T20:48:38.228Z,12.80
2022-09-27T20:51:05.410Z,12.89
2022-09-27T20:53:32.372Z,12.82
2022-09-27T20:56:00.078Z,12.89
2022-09-27T20:58:26.974Z,12.80
2022-09-27T21:00:53.751Z,12.65
2022-09-27T21:03:21.936Z,12.47
2022-09-27T21:05:55.533Z,12.37
2022-09-27T21:08:22.328Z,12.26
2022-09-27T21:10:52.698Z,12.38
2022-09-27T21:13:19.970Z,12.42
2022-09-27T21:15:46.863Z,12.48
2022-09-27T21:18:14.019Z,12.45
2022-09-27T21:20:40.633Z,12.32
2022-09-27T21:23:07.252Z,12.53
2022-09-27T21:25:33.864Z,12.41
2022-09-27T21:28:01.680Z,12.59
2022-09-27T21:30:30.234Z,12.73
2022-09-27T21:32:57.465Z,12.56
2022-09-27T21:35:24.131Z,12.38
2022-09-27T21:37:50.831Z,12.06
2022-09-27T21:40:17.765Z,11.66
2022-09-27T21:42:44.422Z,11.74
2022-09-27T21:45:11.067Z,11.96
2022-09-27T21:47:37.629Z,12.11
2022-09-27T21:50:04.391Z,12.24
2022-09-27T21:52:30.942Z,12.46
2022-09-27T21:54:58.850Z,12.53
2022-09-27T21:57:25.399Z,12.62
2022-09-27T21:59:52.097Z,12.65
2022-09-27T22:02:19.436Z,12.70
2022-09-27T22:04:48.373Z,12.59
2022-09-27T22:07:15.011Z,12.61
2022-09-27T22:09:41.580Z,12.58
2022-09-27T22:12:08.222Z,12.61
2022-09-27T22:14:35.124Z,12.67
2022-09-27T22:17:03.174Z,12.71
2022-09-27T22:19:29.714Z,12.76
2022-09-27T22:21:56.345Z,12.86
2022-09-27T22:24:23.685Z,12.75
2022-09-27T22:26:51.960Z,12.86
2022-09-27T22:29:18.797Z,12.72
2022-09-27T22:31:45.671Z,12.49
2022-09-27T22:34:17.118Z,12.48
2022-09-27T22:36:44.078Z,12.25
2022-09-27T22:39:10.724Z,12.15
2022-09-27T22:41:37.635Z,12.05
2022-09-27T22:44:04.299Z,11.75
2022-09-27T22:46:31.334Z,11.54
2022-09-27T22:48:58.021Z,11.33
2022-09-27T22:51:24.925Z,11.15
2022-09-27T22:53:51.502Z,11.25
2022-09-27T22:56:19.312Z,11.10
2022-09-27T22:58:47.367Z,10.93
2022-09-27T23:01:16.601Z,10.97
2022-09-27T23:03:43.610Z,10.90
2022-09-27T23:06:10.434Z,10.74
2022-09-27T23:08:38.134Z,10.76
2022-09-27T23:11:09.291Z,10.79
2022-09-27T23:13:37.693Z,10.82
2022-09-27T23:16:05.843Z,10.77
2022-09-27T23:18:33.387Z,10.71
2022-09-27T23:21:10.258Z,10.63
2022-09-27T23:23:38.271Z,10.61
2022-09-27T23:26:06.861Z,10.56
2022-09-27T23:28:33.918Z,10.34
2022-09-27T23:31:04.788Z,10.21
2022-09-27T23:33:31.410Z,10.15
2022-09-27T23:35:59.893Z,10.34
2022-09-27T23:38:28.502Z,10.36
2022-09-27T23:40:56.151Z,10.24
2022-09-27T23:43:22.915Z,10.07
2022-09-27T23:45:49.619Z,10.21
2022-09-27T23:48:16.478Z,10.10
2022-09-27T23:50:44.294Z,9.94
2022-09-27T23:53:11.038Z,9.75
2022-09-27T23:55:37.645Z,9.70
2022-09-27T23:58:04.221Z,9.52
